SWA3908 KBNA-KIND
Flight info
| Callsign | SWA3908 |
|---|---|
| Flight time | 0h 43m |
| Altitude | 30000 |
| Route | GDOGG4 FAPER EMBRR SMUKE3 |
| Aircraft | B738/M-SDE2E3FGHIRWXY/LB1 |
Departure
| Time | 2026-05-06 01:42 |
|---|---|
| Airport | Nashville International Airport (KBNA) |
Arrival
| Time | 2026-05-06 02:26 |
|---|---|
| Airport | Indianapolis International Airport (KIND) |
| Time | Latitude | Longitude | Altitude | Speed | Heading |
|---|---|---|---|---|---|
| 2026-05-06 01:15 | 36.12831 | -86.66876 | 566 ft | 0 kts | 254° |
| 2026-05-06 01:30 | 36.12838 | -86.66851 | 568 ft | 4 kts | 232° |
| 2026-05-06 01:30 | 36.12856 | -86.66835 | 574 ft | 4 kts | 171° |
| 2026-05-06 01:30 | 36.12869 | -86.66842 | 571 ft | 0 kts | 131° |
| 2026-05-06 01:34 | 36.12852 | -86.66817 | 571 ft | 7 kts | 131° |
| 2026-05-06 01:34 | 36.12815 | -86.66771 | 566 ft | 8 kts | 144° |
| 2026-05-06 01:34 | 36.12765 | -86.66775 | 566 ft | 7 kts | 208° |
| 2026-05-06 01:34 | 36.12724 | -86.66812 | 571 ft | 7 kts | 218° |
| 2026-05-06 01:35 | 36.12685 | -86.66850 | 569 ft | 7 kts | 220° |
| 2026-05-06 01:35 | 36.12650 | -86.66891 | 571 ft | 7 kts | 223° |
| 2026-05-06 01:35 | 36.12627 | -86.66940 | 571 ft | 7 kts | 258° |
| 2026-05-06 01:35 | 36.12650 | -86.67003 | 573 ft | 10 kts | 311° |
| 2026-05-06 01:36 | 36.12696 | -86.67067 | 571 ft | 10 kts | 311° |
| 2026-05-06 01:36 | 36.12740 | -86.67130 | 571 ft | 10 kts | 309° |
| 2026-05-06 01:36 | 36.12782 | -86.67194 | 571 ft | 10 kts | 309° |
| 2026-05-06 01:36 | 36.12821 | -86.67267 | 577 ft | 10 kts | 287° |
| 2026-05-06 01:37 | 36.12793 | -86.67342 | 580 ft | 10 kts | 222° |
| 2026-05-06 01:37 | 36.12743 | -86.67402 | 577 ft | 10 kts | 224° |
| 2026-05-06 01:37 | 36.12689 | -86.67450 | 579 ft | 10 kts | 211° |
| 2026-05-06 01:37 | 36.12629 | -86.67492 | 578 ft | 10 kts | 208° |
| 2026-05-06 01:38 | 36.12566 | -86.67545 | 579 ft | 11 kts | 220° |
| 2026-05-06 01:38 | 36.12510 | -86.67610 | 581 ft | 11 kts | 223° |
| 2026-05-06 01:38 | 36.12453 | -86.67667 | 582 ft | 11 kts | 209° |
| 2026-05-06 01:38 | 36.12385 | -86.67698 | 582 ft | 10 kts | 198° |
| 2026-05-06 01:39 | 36.12359 | -86.67766 | 582 ft | 10 kts | 285° |
| 2026-05-06 01:39 | 36.12377 | -86.67835 | 582 ft | 1 kts | 288° |
| 2026-05-06 01:39 | 36.12378 | -86.67839 | 582 ft | 0 kts | 288° |
| 2026-05-06 01:40 | 36.12379 | -86.67840 | 582 ft | 1 kts | 288° |
| 2026-05-06 01:41 | 36.12386 | -86.67867 | 582 ft | 7 kts | 289° |
| 2026-05-06 01:41 | 36.12396 | -86.67954 | 582 ft | 12 kts | 246° |
| 2026-05-06 01:41 | 36.12324 | -86.68002 | 581 ft | 14 kts | 199° |
| 2026-05-06 01:41 | 36.11973 | -86.68143 | 581 ft | 96 kts | 198° |
| 2026-05-06 01:42 | 36.11096 | -86.68495 | 637 ft | 164 kts | 198° |
| 2026-05-06 01:42 | 36.09918 | -86.69005 | 1276 ft | 189 kts | 201° |
| 2026-05-06 01:42 | 36.08788 | -86.69863 | 2265 ft | 190 kts | 219° |
| 2026-05-06 01:42 | 36.08031 | -86.71225 | 3154 ft | 206 kts | 242° |
| 2026-05-06 01:43 | 36.07555 | -86.73028 | 3467 ft | 233 kts | 246° |
| 2026-05-06 01:43 | 36.07033 | -86.74935 | 4305 ft | 234 kts | 248° |
| 2026-05-06 01:43 | 36.06674 | -86.76895 | 5310 ft | 238 kts | 266° |
| 2026-05-06 01:43 | 36.06893 | -86.78973 | 6125 ft | 249 kts | 278° |
| 2026-05-06 01:44 | 36.07307 | -86.81039 | 6685 ft | 248 kts | 279° |
| 2026-05-06 01:44 | 36.07743 | -86.83079 | 6946 ft | 247 kts | 279° |
| 2026-05-06 01:44 | 36.08427 | -86.85082 | 6951 ft | 263 kts | 301° |
| 2026-05-06 01:44 | 36.09860 | -86.86560 | 6966 ft | 279 kts | 326° |
| 2026-05-06 01:45 | 36.11801 | -86.87156 | 7264 ft | 301 kts | 353° |
| 2026-05-06 01:45 | 36.13899 | -86.86768 | 8213 ft | 308 kts | 7° |
| 2026-05-06 01:45 | 36.15982 | -86.86149 | 9189 ft | 308 kts | 7° |
| 2026-05-06 01:45 | 36.18073 | -86.85515 | 10032 ft | 311 kts | 7° |
| 2026-05-06 01:46 | 36.20220 | -86.84871 | 10513 ft | 329 kts | 7° |
| 2026-05-06 01:46 | 36.22536 | -86.84191 | 10717 ft | 354 kts | 7° |
| 2026-05-06 01:46 | 36.24988 | -86.83468 | 11170 ft | 368 kts | 7° |
| 2026-05-06 01:46 | 36.27491 | -86.82726 | 11920 ft | 370 kts | 7° |
| 2026-05-06 01:47 | 36.29999 | -86.81977 | 12739 ft | 373 kts | 7° |
| 2026-05-06 01:47 | 36.32533 | -86.81241 | 13491 ft | 376 kts | 7° |
| 2026-05-06 01:47 | 36.35097 | -86.80501 | 14149 ft | 380 kts | 7° |
| 2026-05-06 01:47 | 36.37679 | -86.79751 | 14822 ft | 383 kts | 7° |
| 2026-05-06 01:48 | 36.40285 | -86.78990 | 15499 ft | 387 kts | 7° |
| 2026-05-06 01:48 | 36.42916 | -86.78221 | 16148 ft | 390 kts | 7° |
| 2026-05-06 01:48 | 36.45575 | -86.77443 | 16772 ft | 394 kts | 7° |
| 2026-05-06 01:48 | 36.48254 | -86.76658 | 17479 ft | 397 kts | 7° |
| 2026-05-06 01:49 | 36.50954 | -86.75865 | 18128 ft | 400 kts | 7° |
| 2026-05-06 01:49 | 36.53674 | -86.75067 | 18673 ft | 403 kts | 7° |
| 2026-05-06 01:49 | 36.56409 | -86.74264 | 19236 ft | 405 kts | 7° |
| 2026-05-06 01:49 | 36.59128 | -86.73494 | 19795 ft | 405 kts | 3° |
| 2026-05-06 01:50 | 36.61935 | -86.73312 | 20349 ft | 396 kts | 349° |
| 2026-05-06 01:50 | 36.64640 | -86.73561 | 20968 ft | 396 kts | 349° |
| 2026-05-06 01:50 | 36.67433 | -86.73776 | 21535 ft | 399 kts | 350° |
| 2026-05-06 01:50 | 36.70220 | -86.73932 | 22063 ft | 402 kts | 351° |
| 2026-05-06 01:51 | 36.73119 | -86.74063 | 22475 ft | 409 kts | 351° |
| 2026-05-06 01:51 | 36.75981 | -86.74183 | 22953 ft | 413 kts | 351° |
| 2026-05-06 01:51 | 36.78850 | -86.74341 | 23511 ft | 412 kts | 349° |
| 2026-05-06 01:51 | 36.81709 | -86.74569 | 23984 ft | 412 kts | 348° |
| 2026-05-06 01:52 | 36.83605 | -86.74736 | 24286 ft | 413 kts | 348° |
| 2026-05-06 01:52 | 36.86479 | -86.74993 | 24720 ft | 415 kts | 348° |
| 2026-05-06 01:52 | 36.89238 | -86.75237 | 25126 ft | 417 kts | 348° |
| 2026-05-06 01:52 | 36.92135 | -86.75487 | 25541 ft | 419 kts | 348° |
| 2026-05-06 01:53 | 36.95048 | -86.75732 | 25970 ft | 420 kts | 348° |
| 2026-05-06 01:53 | 36.97967 | -86.75972 | 26451 ft | 420 kts | 348° |
| 2026-05-06 01:53 | 37.00874 | -86.76207 | 27076 ft | 416 kts | 347° |
| 2026-05-06 01:53 | 37.03743 | -86.76436 | 27732 ft | 411 kts | 347° |
| 2026-05-06 01:54 | 37.06590 | -86.76666 | 28344 ft | 408 kts | 347° |
| 2026-05-06 01:54 | 37.09414 | -86.76897 | 28888 ft | 407 kts | 346° |
| 2026-05-06 01:54 | 37.12229 | -86.77129 | 29452 ft | 404 kts | 346° |
| 2026-05-06 01:54 | 37.15036 | -86.77361 | 29840 ft | 406 kts | 346° |
| 2026-05-06 01:55 | 37.20691 | -86.77830 | 29831 ft | 406 kts | 346° |
| 2026-05-06 01:55 | 37.26317 | -86.78292 | 29826 ft | 405 kts | 346° |
| 2026-05-06 01:56 | 37.31946 | -86.78757 | 29833 ft | 406 kts | 346° |
| 2026-05-06 01:56 | 37.37489 | -86.79592 | 29830 ft | 393 kts | 335° |
| 2026-05-06 01:57 | 37.42722 | -86.81449 | 29823 ft | 391 kts | 334° |
| 2026-05-06 01:57 | 37.47945 | -86.83326 | 29836 ft | 391 kts | 334° |
| 2026-05-06 01:58 | 37.53207 | -86.85153 | 29820 ft | 391 kts | 334° |
| 2026-05-06 01:58 | 37.58461 | -86.86941 | 29819 ft | 391 kts | 334° |
| 2026-05-06 01:59 | 37.63712 | -86.88720 | 29819 ft | 390 kts | 334° |
| 2026-05-06 01:59 | 37.68952 | -86.90496 | 29870 ft | 390 kts | 334° |
| 2026-05-06 02:00 | 37.74193 | -86.92275 | 29832 ft | 389 kts | 334° |
| 2026-05-06 02:00 | 37.79411 | -86.94047 | 29822 ft | 387 kts | 334° |
| 2026-05-06 02:01 | 37.84615 | -86.95822 | 29838 ft | 389 kts | 334° |
| 2026-05-06 02:01 | 37.89868 | -86.97616 | 29822 ft | 391 kts | 334° |
| 2026-05-06 02:02 | 37.95099 | -86.99395 | 29827 ft | 386 kts | 334° |
| 2026-05-06 02:02 | 38.00254 | -87.01152 | 29831 ft | 376 kts | 333° |
| 2026-05-06 02:03 | 38.02757 | -87.02001 | 29608 ft | 370 kts | 333° |
| 2026-05-06 02:03 | 38.05180 | -87.02827 | 29393 ft | 361 kts | 333° |
| 2026-05-06 02:03 | 38.07599 | -87.03656 | 29008 ft | 358 kts | 333° |
| 2026-05-06 02:03 | 38.09988 | -87.04477 | 28620 ft | 355 kts | 333° |
| 2026-05-06 02:04 | 38.12364 | -87.05297 | 28241 ft | 352 kts | 333° |
| 2026-05-06 02:04 | 38.14728 | -87.06114 | 27870 ft | 354 kts | 333° |
| 2026-05-06 02:04 | 38.17134 | -87.06952 | 27530 ft | 362 kts | 333° |
| 2026-05-06 02:04 | 38.19567 | -87.07797 | 27107 ft | 362 kts | 333° |
| 2026-05-06 02:05 | 38.21992 | -87.08630 | 26711 ft | 360 kts | 334° |
| 2026-05-06 02:05 | 38.24402 | -87.09456 | 26320 ft | 357 kts | 334° |
| 2026-05-06 02:05 | 38.26795 | -87.10278 | 25945 ft | 355 kts | 334° |
| 2026-05-06 02:05 | 38.29174 | -87.11097 | 25560 ft | 354 kts | 334° |
| 2026-05-06 02:06 | 38.31544 | -87.11915 | 25169 ft | 353 kts | 334° |
| 2026-05-06 02:06 | 38.33913 | -87.12734 | 24788 ft | 352 kts | 334° |
| 2026-05-06 02:06 | 38.36275 | -87.13552 | 24401 ft | 353 kts | 334° |
| 2026-05-06 02:06 | 38.38646 | -87.14375 | 24018 ft | 354 kts | 334° |
| 2026-05-06 02:07 | 38.41029 | -87.15201 | 23633 ft | 355 kts | 335° |
| 2026-05-06 02:07 | 38.43417 | -87.16029 | 23209 ft | 356 kts | 335° |
| 2026-05-06 02:07 | 38.45807 | -87.16856 | 22799 ft | 354 kts | 335° |
| 2026-05-06 02:07 | 38.48179 | -87.17677 | 22406 ft | 352 kts | 335° |
| 2026-05-06 02:08 | 38.50535 | -87.18493 | 22025 ft | 350 kts | 335° |
| 2026-05-06 02:08 | 38.52882 | -87.19308 | 21649 ft | 348 kts | 335° |
| 2026-05-06 02:08 | 38.55213 | -87.20119 | 21274 ft | 347 kts | 335° |
| 2026-05-06 02:08 | 38.57533 | -87.20926 | 20900 ft | 345 kts | 335° |
| 2026-05-06 02:09 | 38.59845 | -87.21731 | 20539 ft | 343 kts | 335° |
| 2026-05-06 02:09 | 38.62142 | -87.22531 | 20195 ft | 342 kts | 335° |
| 2026-05-06 02:09 | 38.64506 | -87.23112 | 19782 ft | 357 kts | 352° |
| 2026-05-06 02:09 | 38.66990 | -87.22413 | 19457 ft | 379 kts | 20° |
| 2026-05-06 02:10 | 38.69296 | -87.20717 | 19093 ft | 385 kts | 26° |
| 2026-05-06 02:10 | 38.71593 | -87.18957 | 18700 ft | 385 kts | 26° |
| 2026-05-06 02:10 | 38.73895 | -87.17207 | 18337 ft | 385 kts | 25° |
| 2026-05-06 02:10 | 38.76169 | -87.15497 | 17940 ft | 383 kts | 25° |
| 2026-05-06 02:11 | 38.78503 | -87.13758 | 17568 ft | 381 kts | 25° |
| 2026-05-06 02:11 | 38.80783 | -87.12065 | 17268 ft | 377 kts | 25° |
| 2026-05-06 02:11 | 38.83049 | -87.10384 | 16903 ft | 375 kts | 25° |
| 2026-05-06 02:11 | 38.85272 | -87.08729 | 16557 ft | 373 kts | 25° |
| 2026-05-06 02:12 | 38.87538 | -87.07036 | 16230 ft | 371 kts | 25° |
| 2026-05-06 02:12 | 38.89763 | -87.05372 | 15875 ft | 369 kts | 25° |
| 2026-05-06 02:12 | 38.91948 | -87.03738 | 15543 ft | 367 kts | 25° |
| 2026-05-06 02:12 | 38.94152 | -87.02088 | 15198 ft | 366 kts | 25° |
| 2026-05-06 02:13 | 38.96348 | -87.00450 | 14824 ft | 364 kts | 25° |
| 2026-05-06 02:13 | 38.98555 | -86.98848 | 14420 ft | 365 kts | 24° |
| 2026-05-06 02:13 | 39.00774 | -86.97256 | 14015 ft | 365 kts | 24° |
| 2026-05-06 02:13 | 39.02993 | -86.95663 | 13561 ft | 366 kts | 24° |
| 2026-05-06 02:14 | 39.05215 | -86.94062 | 13092 ft | 366 kts | 24° |
| 2026-05-06 02:14 | 39.07439 | -86.92454 | 12662 ft | 366 kts | 24° |
| 2026-05-06 02:14 | 39.09653 | -86.90849 | 12247 ft | 365 kts | 25° |
| 2026-05-06 02:14 | 39.11856 | -86.89246 | 11859 ft | 363 kts | 25° |
| 2026-05-06 02:15 | 39.14024 | -86.87595 | 11501 ft | 361 kts | 26° |
| 2026-05-06 02:15 | 39.16158 | -86.85919 | 11154 ft | 358 kts | 27° |
| 2026-05-06 02:15 | 39.18270 | -86.84252 | 10822 ft | 355 kts | 27° |
| 2026-05-06 02:15 | 39.20377 | -86.82599 | 10482 ft | 353 kts | 27° |
| 2026-05-06 02:16 | 39.22459 | -86.80973 | 10240 ft | 344 kts | 27° |
| 2026-05-06 02:16 | 39.24448 | -86.79418 | 10131 ft | 326 kts | 26° |
| 2026-05-06 02:16 | 39.26339 | -86.77932 | 9981 ft | 312 kts | 27° |
| 2026-05-06 02:16 | 39.28126 | -86.76370 | 9594 ft | 309 kts | 31° |
| 2026-05-06 02:17 | 39.29864 | -86.74755 | 9145 ft | 307 kts | 32° |
| 2026-05-06 02:17 | 39.31592 | -86.73139 | 8810 ft | 306 kts | 32° |
| 2026-05-06 02:17 | 39.33313 | -86.71538 | 8557 ft | 304 kts | 32° |
| 2026-05-06 02:17 | 39.35022 | -86.69960 | 8321 ft | 300 kts | 32° |
| 2026-05-06 02:18 | 39.36719 | -86.68399 | 8067 ft | 299 kts | 32° |
| 2026-05-06 02:18 | 39.38404 | -86.66851 | 7832 ft | 296 kts | 32° |
| 2026-05-06 02:18 | 39.40072 | -86.65319 | 7574 ft | 291 kts | 32° |
| 2026-05-06 02:18 | 39.41758 | -86.63929 | 7254 ft | 284 kts | 27° |
| 2026-05-06 02:19 | 39.43449 | -86.62689 | 7030 ft | 275 kts | 26° |
| 2026-05-06 02:19 | 39.45082 | -86.61487 | 6831 ft | 265 kts | 27° |
| 2026-05-06 02:19 | 39.46651 | -86.60321 | 6637 ft | 256 kts | 27° |
| 2026-05-06 02:19 | 39.48059 | -86.58966 | 6397 ft | 251 kts | 46° |
| 2026-05-06 02:20 | 39.50374 | -86.55662 | 5738 ft | 246 kts | 44° |
| 2026-05-06 02:20 | 39.51585 | -86.54089 | 5384 ft | 245 kts | 43° |
| 2026-05-06 02:20 | 39.52786 | -86.52548 | 5092 ft | 243 kts | 43° |
| 2026-05-06 02:21 | 39.53970 | -86.51030 | 5038 ft | 236 kts | 43° |
| 2026-05-06 02:21 | 39.55143 | -86.49525 | 4926 ft | 239 kts | 43° |
| 2026-05-06 02:21 | 39.56340 | -86.47989 | 4610 ft | 243 kts | 43° |
| 2026-05-06 02:21 | 39.57547 | -86.46440 | 4292 ft | 245 kts | 41° |
| 2026-05-06 02:22 | 39.58762 | -86.44880 | 3941 ft | 247 kts | 42° |
| 2026-05-06 02:22 | 39.59968 | -86.43332 | 3596 ft | 241 kts | 43° |
| 2026-05-06 02:22 | 39.61148 | -86.41818 | 3276 ft | 235 kts | 43° |
| 2026-05-06 02:22 | 39.62274 | -86.40373 | 2961 ft | 220 kts | 42° |
| 2026-05-06 02:23 | 39.63323 | -86.39027 | 2670 ft | 204 kts | 42° |
| 2026-05-06 02:23 | 39.64290 | -86.37787 | 2421 ft | 187 kts | 42° |
| 2026-05-06 02:23 | 39.65173 | -86.36653 | 2172 ft | 171 kts | 41° |
| 2026-05-06 02:23 | 39.65985 | -86.35610 | 1923 ft | 157 kts | 44° |
| 2026-05-06 02:24 | 39.66720 | -86.34642 | 1756 ft | 146 kts | 37° |
| 2026-05-06 02:24 | 39.67470 | -86.33768 | 1522 ft | 144 kts | 45° |
| 2026-05-06 02:24 | 39.68148 | -86.32849 | 1357 ft | 139 kts | 43° |
| 2026-05-06 02:24 | 39.68852 | -86.31949 | 1161 ft | 141 kts | 43° |
| 2026-05-06 02:25 | 39.69521 | -86.31086 | 961 ft | 133 kts | 45° |
| 2026-05-06 02:25 | 39.70169 | -86.30255 | 796 ft | 130 kts | 44° |
| 2026-05-06 02:25 | 39.70755 | -86.29509 | 782 ft | 100 kts | 44° |
| 2026-05-06 02:25 | 39.71142 | -86.29016 | 782 ft | 58 kts | 44° |
| 2026-05-06 02:26 | 39.71349 | -86.28755 | 784 ft | 33 kts | 45° |
| 2026-05-06 02:26 | 39.71500 | -86.28561 | 780 ft | 29 kts | 44° |
| 2026-05-06 02:26 | 39.71641 | -86.28384 | 777 ft | 25 kts | 39° |
| 2026-05-06 02:26 | 39.71733 | -86.28439 | 777 ft | 9 kts | 314° |
| 2026-05-06 02:27 | 39.71748 | -86.28458 | 777 ft | 0 kts | 314° |
| 2026-05-06 02:27 | 39.71748 | -86.28459 | 777 ft | 1 kts | 314° |
| 2026-05-06 02:28 | 39.71768 | -86.28504 | 778 ft | 8 kts | 270° |
| 2026-05-06 02:28 | 39.71736 | -86.28561 | 779 ft | 8 kts | 225° |
| 2026-05-06 02:28 | 39.71697 | -86.28611 | 780 ft | 9 kts | 224° |
| 2026-05-06 02:28 | 39.71636 | -86.28687 | 780 ft | 15 kts | 224° |
| 2026-05-06 02:29 | 39.71579 | -86.28797 | 781 ft | 14 kts | 276° |
| 2026-05-06 02:29 | 39.71639 | -86.28897 | 780 ft | 14 kts | 317° |
| 2026-05-06 02:29 | 39.71708 | -86.28981 | 782 ft | 13 kts | 315° |
| 2026-05-06 02:29 | 39.71771 | -86.29064 | 784 ft | 13 kts | 314° |
| 2026-05-06 02:30 | 39.71833 | -86.29146 | 786 ft | 12 kts | 315° |
| 2026-05-06 02:30 | 39.71889 | -86.29229 | 788 ft | 12 kts | 291° |
| 2026-05-06 02:30 | 39.71855 | -86.29321 | 787 ft | 12 kts | 224° |
| 2026-05-06 02:30 | 39.71834 | -86.29424 | 786 ft | 12 kts | 257° |
| 2026-05-06 02:31 | 39.71801 | -86.29476 | 786 ft | 6 kts | 219° |
| 2026-05-06 02:31 | 39.71767 | -86.29511 | 785 ft | 6 kts | 219° |
| 2026-05-06 02:31 | 39.71765 | -86.29560 | 785 ft | 6 kts | 298° |
| 2026-05-06 02:31 | 39.71783 | -86.29592 | 786 ft | 2 kts | 308° |
| 2026-05-06 02:32 | 39.71787 | -86.29599 | 786 ft | 0 kts | 308° |
| 2026-05-06 02:35 | 0.00549 | 0.00002 | 53808 ft | 0 kts | 0° |